Terminal Aerodrome Forecast
Issued by NWS Paducah, KY

Home | Current Version | Previous Version | Graphics & Text | Print | Product List | Glossary On
Versions: 1 2 3 4 5 6 7 8 9 10 11 12
000
FTUS43 KPAH 262321
TAFEVV
TAF
KEVV 262321Z 2700/2724 35006KT P6SM BKN150
     FM270200 02003KT P6SM BKN070
     FM271400 03003KT P6SM SCT040=

USA.gov is the U.S. government's official web portal to all federal, state and local government web resources and services.